Time;durP1;ratioP1;P1;durP2;ratioP2;P2;SDS_P1;SDS_P2;PMS_P1;PMS_P2;Temp;Humidity;BMP_temperature;BMP_pressure;BME280_temperature;BME280_humidity;BME280_pressure;Samples;Min_cycle;Max_cycle;Signal;HPM_P1;HPM_P2
2022/02/23 00:03:31;;;;;;;13.00;3.57;;;;;5.20;101856.00;;;;10081345;29;20269;-76
2022/02/23 00:08:34;;;;;;;18.10;3.37;;;;;5.00;101864.00;;;;10075144;29;20201;-76
2022/02/23 00:13:37;;;;;;;13.80;3.17;;;;;4.90;101873.00;;;;10059939;29;20208;-76
2022/02/23 00:18:40;;;;;;;8.53;3.37;;;;;4.80;101863.00;;;;10050155;29;20217;-77
2022/02/23 00:23:41;;;;;;;10.03;2.97;;;;;4.70;101878.00;;;;10058238;29;20221;-77
2022/02/23 00:28:45;;;;;;;13.10;3.23;;;;;4.60;101884.00;;;;10065518;29;20194;-77
2022/02/23 00:33:46;;;;;;;11.83;3.20;;;;;4.60;101889.00;;;;10071331;29;20272;-77
2022/02/23 00:38:48;;;;;;;10.00;3.30;;;;;4.60;101885.00;;;;10024279;29;20472;-77
2022/02/23 00:43:50;;;;;;;11.00;3.00;;;;;4.50;101881.00;;;;10101796;29;20209;-77
2022/02/23 00:48:54;;;;;;;13.33;3.23;;;;;4.40;101892.00;;;;10074348;29;20265;-77
2022/02/23 00:53:57;;;;;;;12.30;4.03;;;;;4.30;101901.00;;;;10089653;29;20201;-77
2022/02/23 00:58:59;;;;;;;11.47;3.70;;;;;4.20;101905.00;;;;10074043;29;20215;-77
2022/02/23 01:04:01;;;;;;;14.87;3.77;;;;;4.20;101901.00;;;;10074447;29;20235;-77
2022/02/23 01:09:04;;;;;;;13.20;4.57;;;;;4.20;101908.00;;;;10059525;29;20208;-77
2022/02/23 01:14:08;;;;;;;17.03;4.27;;;;;4.20;101924.00;;;;10060509;29;20203;-77
2022/02/23 01:19:09;;;;;;;34.43;6.47;;;;;4.20;101918.00;;;;10037273;29;20225;-77
2022/02/23 01:24:11;;;;;;;12.60;4.33;;;;;4.10;101919.00;;;;10058161;29;20250;-77
2022/02/23 01:29:14;;;;;;;13.33;3.90;;;;;4.10;101924.00;;;;10071567;29;20220;-77
2022/02/23 01:34:16;;;;;;;15.03;4.40;;;;;4.10;101929.00;;;;10098042;29;20228;-77
2022/02/23 01:39:17;;;;;;;12.13;4.10;;;;;4.10;101941.00;;;;10086363;29;20225;-77
2022/02/23 01:44:19;;;;;;;16.97;4.77;;;;;4.00;101942.00;;;;10086584;29;20271;-77
2022/02/23 01:49:23;;;;;;;14.20;3.57;;;;;3.90;101944.00;;;;10100885;29;20230;-77
2022/02/23 01:54:25;;;;;;;9.17;3.73;;;;;3.90;101942.00;;;;10053964;29;20224;-77
2022/02/23 01:59:27;;;;;;;14.53;3.60;;;;;3.90;101921.00;;;;10067330;29;20228;-77
2022/02/23 02:04:32;;;;;;;20.03;4.03;;;;;3.90;101925.00;;;;10099791;29;20212;-77
2022/02/23 02:09:34;;;;;;;12.37;4.27;;;;;3.80;101939.00;;;;10038862;29;20204;-77
2022/02/23 02:14:37;;;;;;;11.37;3.60;;;;;3.70;101941.00;;;;10068178;29;21031;-77
2022/02/23 02:19:39;;;;;;;10.03;3.60;;;;;3.70;101942.00;;;;10068183;29;20220;-77
2022/02/23 02:24:42;;;;;;;19.07;4.27;;;;;3.70;101957.00;;;;10077078;29;20249;-77
2022/02/23 02:29:44;;;;;;;13.33;3.70;;;;;3.60;101964.00;;;;10067595;29;20197;-77
2022/02/23 02:34:47;;;;;;;11.90;3.13;;;;;3.60;101969.00;;;;10061418;29;20201;-77
2022/02/23 02:39:49;;;;;;;12.30;3.40;;;;;3.60;101972.00;;;;10098621;29;20216;-77
2022/02/23 02:44:55;;;;;;;11.80;3.40;;;;;3.60;101969.00;;;;10079449;29;20193;-77
2022/02/23 02:49:57;;;;;;;19.67;3.70;;;;;3.60;101973.00;;;;10046423;29;20193;-77
2022/02/23 02:54:58;;;;;;;7.70;3.40;;;;;3.60;101979.00;;;;10045857;29;20208;-77
2022/02/23 03:00:00;;;;;;;11.13;2.67;;;;;3.60;101977.00;;;;10061524;29;20213;-77
2022/02/23 03:05:03;;;;;;;13.00;3.20;;;;;3.60;101985.00;;;;10092085;29;20218;-77
2022/02/23 03:10:06;;;;;;;7.63;2.80;;;;;3.60;101981.00;;;;10075055;29;20205;-77
2022/02/23 03:15:08;;;;;;;13.53;3.50;;;;;3.70;101986.00;;;;10031328;29;20265;-77
2022/02/23 03:20:11;;;;;;;14.63;3.90;;;;;3.70;102006.00;;;;10062143;29;20216;-77
2022/02/23 03:25:13;;;;;;;15.97;4.30;;;;;3.70;101990.00;;;;10073287;29;20221;-77
2022/02/23 03:30:15;;;;;;;13.23;3.60;;;;;3.70;101998.00;;;;10042510;29;20877;-77
2022/02/23 03:35:17;;;;;;;13.53;3.00;;;;;3.60;101996.00;;;;10044231;29;20192;-77
2022/02/23 03:40:18;;;;;;;12.93;3.50;;;;;3.60;102007.00;;;;10058533;29;20225;-77
2022/02/23 03:45:21;;;;;;;17.80;3.80;;;;;3.60;102011.00;;;;10045254;29;20188;-77
2022/02/23 03:50:23;;;;;;;19.07;4.53;;;;;3.50;102013.00;;;;10057060;29;20201;-77
2022/02/23 03:55:25;;;;;;;11.07;3.00;;;;;3.50;102016.00;;;;10088376;29;20248;-77
2022/02/23 04:00:27;;;;;;;9.23;3.13;;;;;3.40;102024.00;;;;10023822;29;20914;-77
2022/02/23 04:05:29;;;;;;;21.80;4.13;;;;;3.40;102032.00;;;;10032831;29;20239;-77
2022/02/23 04:10:31;;;;;;;13.47;3.30;;;;;3.40;102041.00;;;;10056187;29;20219;-77
2022/02/23 04:15:33;;;;;;;18.43;4.10;;;;;3.40;102042.00;;;;10053390;29;20193;-77
2022/02/23 04:20:36;;;;;;;17.00;3.63;;;;;3.40;102051.00;;;;10067129;29;20217;-77
2022/02/23 04:25:38;;;;;;;17.07;3.53;;;;;3.40;102059.00;;;;10066025;29;20280;-77
2022/02/23 04:30:40;;;;;;;11.13;4.17;;;;;3.40;102051.00;;;;10071011;29;20193;-77
2022/02/23 04:35:42;;;;;;;11.37;4.07;;;;;3.30;102049.00;;;;10036258;29;20200;-77
2022/02/23 04:40:45;;;;;;;13.67;4.43;;;;;3.30;102049.00;;;;10099572;29;20273;-77
2022/02/23 04:45:47;;;;;;;14.77;4.23;;;;;3.20;102054.00;;;;10081971;29;20196;-77
2022/02/23 04:50:49;;;;;;;24.93;4.57;;;;;3.10;102063.00;;;;10069152;29;20193;-77
2022/02/23 04:55:52;;;;;;;13.20;4.10;;;;;3.10;102056.00;;;;10051986;29;20236;-77
2022/02/23 05:00:54;;;;;;;14.20;4.40;;;;;3.10;102063.00;;;;10051381;29;20213;-77
2022/02/23 05:05:56;;;;;;;14.00;3.93;;;;;3.00;102061.00;;;;10050972;29;20213;-77
2022/02/23 05:10:58;;;;;;;22.33;5.73;;;;;2.90;102051.00;;;;10050858;29;20201;-77
2022/02/23 05:16:02;;;;;;;12.50;4.00;;;;;2.80;102060.00;;;;10066904;29;20197;-77
2022/02/23 05:21:04;;;;;;;11.90;3.63;;;;;2.90;102063.00;;;;10081714;29;20228;-76
2022/02/23 05:26:11;;;;;;;19.90;4.23;;;;;2.90;102065.00;;;;10065682;29;20204;-76
2022/02/23 05:31:13;;;;;;;19.10;3.73;;;;;2.90;102064.00;;;;10080491;29;20256;-77
2022/02/23 05:36:15;;;;;;;11.87;3.80;;;;;2.90;102063.00;;;;10051158;29;20205;-76
2022/02/23 05:41:17;;;;;;;16.63;4.13;;;;;2.90;102060.00;;;;10042323;29;20213;-76
2022/02/23 05:46:19;;;;;;;16.13;3.70;;;;;2.90;102058.00;;;;10025678;29;20229;-76
2022/02/23 05:51:29;;;;;;;9.17;3.23;;;;;3.00;102073.00;;;;10041907;29;20201;-76
2022/02/23 05:56:31;;;;;;;12.33;3.60;;;;;3.10;102076.00;;;;10040235;29;20212;-76
2022/02/23 06:01:34;;;;;;;14.67;4.90;;;;;3.00;102085.00;;;;10040134;29;20639;-76
2022/02/23 06:06:36;;;;;;;9.17;3.93;;;;;2.90;102082.00;;;;10045752;29;20215;-77
2022/02/23 06:11:40;;;;;;;14.60;4.17;;;;;2.90;102085.00;;;;10032829;29;20209;-76
2022/02/23 06:16:42;;;;;;;12.03;5.07;;;;;2.90;102090.00;;;;10070293;29;20649;-77
2022/02/23 06:21:49;;;;;;;19.23;5.00;;;;;2.90;102105.00;;;;10055416;29;20300;-77
2022/02/23 06:26:57;;;;;;;13.43;5.13;;;;;2.80;102112.00;;;;10011993;29;20193;-77
2022/02/23 06:32:07;;;;;;;13.60;5.30;;;;;2.80;102114.00;;;;10038371;29;20197;-77
2022/02/23 06:37:09;;;;;;;11.13;5.70;;;;;2.80;102116.00;;;;10046135;29;20565;-77
2022/02/23 06:42:11;;;;;;;18.73;5.40;;;;;2.80;102105.00;;;;10074468;29;20247;-78
2022/02/23 06:47:15;;;;;;;16.30;5.20;;;;;2.90;102107.00;;;;10055601;29;20250;-78
2022/02/23 06:52:19;;;;;;;16.57;4.87;;;;;2.90;102118.00;;;;10072514;29;20204;-78
2022/02/23 06:57:21;;;;;;;18.07;6.83;;;;;3.00;102118.00;;;;10066840;29;20236;-78
2022/02/23 07:02:23;;;;;;;14.33;5.90;;;;;3.10;102118.00;;;;10043470;29;20209;-77
2022/02/23 07:07:25;;;;;;;13.20;6.00;;;;;3.20;102117.00;;;;10040581;29;20740;-78
2022/02/23 07:12:27;;;;;;;15.03;6.37;;;;;3.20;102119.00;;;;10027924;29;20611;-78
2022/02/23 07:17:29;;;;;;;18.53;5.73;;;;;3.30;102122.00;;;;10043363;29;20205;-78
2022/02/23 07:22:39;;;;;;;14.60;6.37;;;;;3.50;102132.00;;;;10043517;29;20314;-78
2022/02/23 07:27:42;;;;;;;15.93;5.97;;;;;3.80;102142.00;;;;10066699;29;20240;-78
2022/02/23 07:32:44;;;;;;;17.03;5.47;;;;;4.00;102144.00;;;;10084453;29;20272;-77
2022/02/23 07:37:50;;;;;;;23.27;7.13;;;;;4.20;102145.00;;;;10066303;29;20228;-78
2022/02/23 07:42:52;;;;;;;24.70;6.53;;;;;4.40;102160.00;;;;10062159;29;20269;-77
2022/02/23 07:48:04;;;;;;;22.10;6.63;;;;;4.60;102163.00;;;;10070984;29;20665;-78
2022/02/23 07:53:06;;;;;;;18.97;7.07;;;;;4.80;102170.00;;;;10062244;29;20297;-78
2022/02/23 07:58:08;;;;;;;26.97;7.13;;;;;5.10;102173.00;;;;10058514;29;20250;-78
2022/02/23 08:03:11;;;;;;;23.17;6.80;;;;;5.30;102175.00;;;;10090105;29;20212;-78
2022/02/23 08:08:14;;;;;;;21.17;6.87;;;;;5.50;102183.00;;;;10028149;29;20229;-78
2022/02/23 08:13:17;;;;;;;28.83;7.13;;;;;5.80;102192.00;;;;10062686;29;20197;-79
2022/02/23 08:23:43;;;;;;;16.67;6.53;;;;;6.40;102203.00;;;;10079010;29;20597;-79
2022/02/23 08:28:45;;;;;;;22.80;6.73;;;;;6.70;102209.00;;;;10022076;29;20219;-79
2022/02/23 08:33:47;;;;;;;23.17;6.93;;;;;7.00;102214.00;;;;10086722;29;20201;-79
2022/02/23 08:38:50;;;;;;;18.10;6.60;;;;;7.40;102223.00;;;;10045784;29;20220;-79
2022/02/23 08:43:51;;;;;;;13.97;6.60;;;;;7.90;102229.00;;;;10021312;29;20204;-78
2022/02/23 08:49:01;;;;;;;12.97;5.50;;;;;8.40;102224.00;;;;10043765;29;20200;-80
2022/02/23 08:54:04;;;;;;;17.20;4.33;;;;;8.80;102232.00;;;;10069388;29;20222;-79
2022/02/23 08:59:07;;;;;;;19.47;5.53;;;;;9.20;102227.00;;;;10060868;29;20220;-79
2022/02/23 09:04:10;;;;;;;12.80;4.50;;;;;9.50;102227.00;;;;10060969;29;20201;-79
2022/02/23 09:09:13;;;;;;;22.17;4.93;;;;;9.80;102220.00;;;;10090585;29;20212;-78
2022/02/23 09:14:16;;;;;;;20.50;5.30;;;;;10.10;102224.00;;;;10090535;29;20196;-78
2022/02/23 09:19:18;;;;;;;12.27;4.70;;;;;10.40;102220.00;;;;10053255;29;20209;-78
2022/02/23 09:24:20;;;;;;;18.23;5.60;;;;;10.70;102216.00;;;;10076095;29;20231;-78
2022/02/23 09:29:22;;;;;;;15.97;5.43;;;;;11.00;102212.00;;;;10086789;29;20260;-78
2022/02/23 09:34:24;;;;;;;16.63;6.33;;;;;11.30;102219.00;;;;10118294;29;20215;-78
2022/02/23 09:39:26;;;;;;;15.13;5.40;;;;;11.60;102207.00;;;;10082820;29;20234;-76
2022/02/23 09:44:29;;;;;;;13.80;5.33;;;;;11.90;102196.00;;;;10038662;29;20201;-75
2022/02/23 09:49:31;;;;;;;18.17;6.10;;;;;12.20;102189.00;;;;10066278;29;20274;-79
2022/02/23 09:54:34;;;;;;;15.73;4.80;;;;;12.50;102183.00;;;;10096506;29;20204;-76
2022/02/23 09:59:36;;;;;;;12.77;3.53;;;;;12.80;102183.00;;;;10079736;29;20208;-76
2022/02/23 10:04:40;;;;;;;13.70;3.88;;;;;12.90;102180.00;;;;10094614;29;20226;-76
2022/02/23 10:09:49;;;;;;;14.33;4.27;;;;;12.90;102172.00;;;;10087961;29;20205;-76
2022/02/23 10:15:11;;;;;;;10.13;3.37;;;;;13.20;102176.00;;;;10056834;29;20209;-77
2022/02/23 10:20:21;;;;;;;15.80;3.05;;;;;13.40;102179.00;;;;10084110;29;20677;-77
2022/02/23 10:25:26;;;;;;;14.23;3.50;;;;;13.70;102186.00;;;;10075205;29;20220;-77
2022/02/23 10:30:28;;;;;;;11.10;3.70;;;;;13.70;102182.00;;;;10078726;29;20261;-77
2022/02/23 10:35:30;;;;;;;16.13;3.40;;;;;13.90;102174.00;;;;10070521;29;20197;-77
2022/02/23 10:40:41;;;;;;;9.95;2.67;;;;;14.10;102171.00;;;;10057781;29;20283;-76
2022/02/23 10:45:44;;;;;;;6.28;2.53;;;;;14.30;102171.00;;;;10099528;29;20205;-76
2022/02/23 10:50:54;;;;;;;10.88;2.88;;;;;14.50;102166.00;;;;10113184;29;20307;-78
2022/02/23 10:55:57;;;;;;;9.25;3.08;;;;;14.60;102165.00;;;;10078191;29;20208;-78
2022/02/23 11:01:03;;;;;;;8.77;3.42;;;;;14.80;102174.00;;;;10071646;29;20255;-78
2022/02/23 11:06:12;;;;;;;11.10;2.53;;;;;14.70;102155.00;;;;10041858;29;20221;-78
2022/02/23 11:11:15;;;;;;;11.30;2.85;;;;;14.80;102149.00;;;;10042453;29;20227;-78
2022/02/23 11:16:19;;;;;;;11.90;3.10;;;;;15.00;102141.00;;;;10052343;29;20556;-78
2022/02/23 11:21:24;;;;;;;7.05;2.72;;;;;15.20;102149.00;;;;10049682;29;20224;-78
2022/02/23 11:26:34;;;;;;;8.77;2.40;;;;;15.20;102148.00;;;;10057744;29;20236;-78
2022/02/23 11:31:38;;;;;;;6.65;2.28;;;;;15.30;102138.00;;;;10050330;29;20213;-77
2022/02/23 11:36:44;;;;;;;8.15;2.33;;;;;15.30;102131.00;;;;10046509;29;20201;-78
2022/02/23 11:41:53;;;;;;;8.05;2.55;;;;;15.50;102113.00;;;;10052034;29;20220;-78
2022/02/23 11:47:19;;;;;;;6.38;1.73;;;;;15.50;102114.00;;;;10049658;29;20220;-78
2022/02/23 11:52:24;;;;;;;5.85;2.05;;;;;15.50;102102.00;;;;10052877;29;20220;-79
2022/02/23 11:57:47;;;;;;;7.85;1.60;;;;;15.70;102081.00;;;;10051448;29;20545;-78
2022/02/23 12:03:30;;;;;;;6.68;1.73;;;;;15.70;102079.00;;;;10085412;29;20816;-78
2022/02/23 12:08:33;;;;;;;5.20;1.73;;;;;15.60;102072.00;;;;10031205;29;20222;-78
2022/02/23 12:13:36;;;;;;;8.00;1.75;;;;;15.60;102068.00;;;;10052110;29;20217;-78
2022/02/23 12:18:46;;;;;;;9.63;1.85;;;;;15.70;102053.00;;;;10054288;29;20249;-79
2022/02/23 12:23:48;;;;;;;6.82;2.10;;;;;15.80;102050.00;;;;10016569;29;20301;-78
2022/02/23 12:28:52;;;;;;;5.07;1.52;;;;;15.90;102051.00;;;;10060178;29;20200;-78
2022/02/23 12:33:59;;;;;;;5.57;1.60;;;;;15.90;102036.00;;;;10059892;29;20295;-78
2022/02/23 12:39:35;;;;;;;3.67;1.55;;;;;16.00;102023.00;;;;10041609;29;20244;-78
2022/02/23 12:44:37;;;;;;;5.15;1.60;;;;;15.10;102024.00;;;;10085161;29;20193;-77
2022/02/23 12:49:40;;;;;;;4.93;1.42;;;;;15.00;102003.00;;;;10038873;29;20296;-77
2022/02/23 12:54:42;;;;;;;4.30;1.65;;;;;14.10;102003.00;;;;10033274;29;20202;-77
2022/02/23 12:59:44;;;;;;;6.73;1.87;;;;;13.80;101976.00;;;;10039017;29;20198;-77
2022/02/23 13:04:47;;;;;;;3.42;1.42;;;;;14.70;101974.00;;;;10036787;29;20201;-78
2022/02/23 13:09:51;;;;;;;7.20;1.67;;;;;15.30;101958.00;;;;10032892;29;20246;-78
2022/02/23 13:14:57;;;;;;;6.97;2.17;;;;;15.80;101939.00;;;;10054844;29;20212;-79
2022/02/23 13:19:59;;;;;;;3.47;1.63;;;;;15.90;101927.00;;;;10042578;29;20228;-78
2022/02/23 13:25:01;;;;;;;5.45;1.40;;;;;16.00;101921.00;;;;10036060;29;20268;-79
2022/02/23 13:30:23;;;;;;;4.78;1.85;;;;;16.00;101913.00;;;;10055842;29;20205;-79
2022/02/23 13:35:25;;;;;;;5.47;1.33;;;;;15.70;101910.00;;;;10059113;29;20291;-80
2022/02/23 13:40:27;;;;;;;4.85;1.58;;;;;15.40;101898.00;;;;10064305;29;20193;-78
2022/02/23 13:45:31;;;;;;;5.18;1.55;;;;;14.90;101901.00;;;;10043712;29;20201;-78
2022/02/23 13:50:45;;;;;;;4.95;1.50;;;;;15.30;101878.00;;;;10098680;29;20261;-78
2022/02/23 13:55:54;;;;;;;5.63;1.50;;;;;15.40;101882.00;;;;10064636;29;20201;-77
2022/02/23 14:01:12;;;;;;;6.70;1.70;;;;;15.50;101873.00;;;;10033090;29;20203;-78
2022/02/23 14:06:16;;;;;;;5.15;1.05;;;;;15.90;101846.00;;;;10066621;29;20201;-79
2022/02/23 14:11:24;;;;;;;9.02;1.80;;;;;15.90;101829.00;;;;10058115;29;20205;-77
2022/02/23 14:16:37;;;;;;;5.70;1.65;;;;;17.60;101777.00;;;;10056785;29;20261;-77
2022/02/23 14:21:40;;;;;;;4.05;1.30;;;;;16.90;101805.00;;;;10037751;29;20225;-77
2022/02/23 14:26:53;;;;;;;5.33;1.93;;;;;18.00;101758.00;;;;10057735;29;20193;-77
2022/02/23 14:31:57;;;;;;;6.43;1.73;;;;;17.10;101814.00;;;;10057828;29;20241;-77
2022/02/23 14:37:05;;;;;;;5.25;1.83;;;;;16.40;101788.00;;;;10040793;29;20197;-77
2022/02/23 14:42:07;;;;;;;6.60;1.70;;;;;15.40;101764.00;;;;10046693;29;20204;-76
2022/02/23 14:47:12;;;;;;;5.50;2.03;;;;;17.50;101733.00;;;;10058198;29;20316;-77
2022/02/23 14:52:14;;;;;;;7.17;2.03;;;;;17.40;101742.00;;;;10032532;29;20250;-77
2022/02/23 14:57:16;;;;;;;7.63;1.50;;;;;18.10;101727.00;;;;10013871;29;20252;-77
2022/02/23 15:02:18;;;;;;;5.65;1.85;;;;;16.20;101778.00;;;;10073508;29;20203;-76
2022/02/23 15:07:20;;;;;;;11.20;2.95;;;;;14.40;101773.00;;;;10040671;29;20242;-76
2022/02/23 15:12:22;;;;;;;4.83;1.63;;;;;13.30;101757.00;;;;10083577;29;20280;-76
2022/02/23 15:17:24;;;;;;;6.67;2.23;;;;;12.90;101754.00;;;;10075234;29;20272;-76
2022/02/23 15:22:27;;;;;;;6.20;1.80;;;;;13.90;101748.00;;;;10025913;29;20212;-76
2022/02/23 15:27:29;;;;;;;6.77;1.80;;;;;14.60;101717.00;;;;10044443;29;20197;-77
2022/02/23 15:32:31;;;;;;;8.80;2.33;;;;;14.10;101731.00;;;;10025807;29;20238;-76
2022/02/23 15:37:36;;;;;;;13.13;2.67;;;;;13.10;101728.00;;;;10053124;29;20761;-77
2022/02/23 15:42:39;;;;;;;6.20;2.20;;;;;12.70;101727.00;;;;10027520;29;20613;-76
2022/02/23 15:47:41;;;;;;;7.97;2.03;;;;;12.20;101731.00;;;;10043189;29;20231;-76
2022/02/23 15:52:43;;;;;;;9.93;2.10;;;;;12.10;101731.00;;;;10044270;29;20213;-76
2022/02/23 15:57:45;;;;;;;5.37;2.13;;;;;12.30;101722.00;;;;10084038;29;20193;-77
2022/02/23 16:02:47;;;;;;;7.63;2.10;;;;;11.90;101718.00;;;;10060604;29;20232;-76
2022/02/23 16:07:50;;;;;;;9.80;3.03;;;;;11.80;101703.00;;;;10022845;29;20289;-77
2022/02/23 16:12:52;;;;;;;8.70;2.00;;;;;11.60;101708.00;;;;10066917;29;20236;-77
2022/02/23 16:17:54;;;;;;;9.90;2.93;;;;;11.40;101698.00;;;;10045593;29;20208;-77
2022/02/23 16:23:06;;;;;;;6.33;2.47;;;;;11.20;101691.00;;;;10064662;29;20220;-76
2022/02/23 16:28:14;;;;;;;6.27;2.27;;;;;11.10;101682.00;;;;10103547;29;20197;-77
2022/02/23 16:33:16;;;;;;;6.10;2.20;;;;;11.00;101680.00;;;;10095122;29;20237;-76
2022/02/23 16:38:18;;;;;;;4.77;2.03;;;;;10.90;101682.00;;;;10026547;29;20212;-76
2022/02/23 16:43:20;;;;;;;7.10;2.10;;;;;10.80;101676.00;;;;10020545;29;20196;-77
2022/02/23 16:48:22;;;;;;;8.57;2.40;;;;;10.80;101678.00;;;;10051675;29;20212;-77
2022/02/23 16:53:24;;;;;;;7.50;2.07;;;;;10.70;101678.00;;;;10019575;29;20361;-77
2022/02/23 16:58:28;;;;;;;8.33;2.60;;;;;10.60;101669.00;;;;10047562;29;20201;-76
2022/02/23 17:03:30;;;;;;;9.83;2.07;;;;;10.50;101668.00;;;;10040037;29;20261;-77
2022/02/23 17:08:33;;;;;;;7.97;2.00;;;;;10.40;101663.00;;;;10060844;29;20217;-77
2022/02/23 17:13:35;;;;;;;9.87;2.50;;;;;10.20;101672.00;;;;10039104;29;20224;-77
2022/02/23 17:18:40;;;;;;;9.33;2.77;;;;;10.20;101677.00;;;;10031473;29;20200;-77
2022/02/23 17:23:42;;;;;;;12.20;2.80;;;;;10.00;101670.00;;;;10039309;29;20221;-77
2022/02/23 17:28:44;;;;;;;8.53;3.40;;;;;9.90;101683.00;;;;10049084;29;20205;-79
2022/02/23 17:33:48;;;;;;;7.17;2.37;;;;;9.80;101691.00;;;;10026511;29;20210;-77
2022/02/23 17:38:51;;;;;;;10.10;2.63;;;;;9.80;101684.00;;;;10050794;29;20196;-77
2022/02/23 17:43:52;;;;;;;9.07;2.67;;;;;9.70;101691.00;;;;10067988;29;20219;-77
2022/02/23 17:48:55;;;;;;;6.53;2.27;;;;;9.60;101698.00;;;;10000865;29;20201;-77
2022/02/23 17:53:58;;;;;;;6.07;2.13;;;;;9.60;101696.00;;;;10043029;29;20225;-77
2022/02/23 17:59:00;;;;;;;7.00;3.10;;;;;9.50;101690.00;;;;10027828;29;20753;-77
2022/02/23 18:04:02;;;;;;;9.20;2.40;;;;;9.40;101669.00;;;;10011980;29;20197;-77
2022/02/23 18:09:05;;;;;;;8.90;2.60;;;;;9.30;101676.00;;;;10027055;29;20213;-77
2022/02/23 18:14:07;;;;;;;9.63;3.63;;;;;9.30;101682.00;;;;10030599;29;20213;-77
2022/02/23 18:19:09;;;;;;;9.30;2.67;;;;;9.30;101673.00;;;;10055938;29;20250;-77
2022/02/23 18:24:11;;;;;;;10.43;2.87;;;;;9.30;101662.00;;;;10027001;29;20217;-78
2022/02/23 18:29:16;;;;;;;11.73;3.40;;;;;9.30;101666.00;;;;10026784;29;20257;-78
2022/02/23 18:34:19;;;;;;;9.37;3.43;;;;;9.30;101657.00;;;;10040131;29;20301;-77
2022/02/23 18:39:21;;;;;;;12.23;3.10;;;;;9.30;101652.00;;;;10038087;29;20213;-77
2022/02/23 18:44:23;;;;;;;10.93;3.13;;;;;9.30;101652.00;;;;10006174;29;20661;-77
2022/02/23 18:49:26;;;;;;;7.40;2.70;;;;;9.30;101641.00;;;;10057816;29;20196;-77
2022/02/23 18:54:28;;;;;;;8.73;2.97;;;;;9.30;101642.00;;;;10022554;29;20221;-78
2022/02/23 18:59:30;;;;;;;5.53;2.60;;;;;9.30;101637.00;;;;10039340;29;20241;-77
2022/02/23 19:04:32;;;;;;;7.00;2.97;;;;;9.20;101626.00;;;;10032746;29;20193;-78
2022/02/23 19:09:34;;;;;;;9.77;3.43;;;;;9.20;101628.00;;;;10023540;29;20518;-77
2022/02/23 19:14:36;;;;;;;11.40;3.40;;;;;9.10;101613.00;;;;10027069;29;20220;-77
2022/02/23 19:19:38;;;;;;;8.70;2.90;;;;;9.10;101613.00;;;;10053197;29;20209;-78
2022/02/23 19:24:40;;;;;;;9.87;3.30;;;;;9.00;101608.00;;;;10022673;29;20218;-78
2022/02/23 19:29:43;;;;;;;12.60;3.33;;;;;9.00;101603.00;;;;10044939;29;20276;-78
2022/02/23 19:34:46;;;;;;;13.53;3.70;;;;;9.00;101599.00;;;;10043770;29;20216;-78
2022/02/23 19:39:51;;;;;;;12.07;3.67;;;;;9.00;101589.00;;;;10043329;29;20220;-78
2022/02/23 19:45:09;;;;;;;13.83;3.67;;;;;9.00;101590.00;;;;10038089;29;20224;-78
2022/02/23 19:50:14;;;;;;;13.43;3.93;;;;;9.00;101586.00;;;;10049381;29;20723;-78
2022/02/23 19:55:16;;;;;;;11.87;4.03;;;;;9.00;101579.00;;;;10050317;29;20205;-78
2022/02/23 20:00:20;;;;;;;11.17;4.17;;;;;9.00;101570.00;;;;10051518;29;20602;-78
2022/02/23 20:05:24;;;;;;;10.00;3.90;;;;;9.00;101575.00;;;;10026714;29;20244;-79
2022/02/23 20:10:26;;;;;;;11.90;4.60;;;;;9.00;101563.00;;;;10036376;29;20270;-79
2022/02/23 20:15:28;;;;;;;10.27;3.90;;;;;9.00;101555.00;;;;10039475;29;20203;-79
2022/02/23 20:20:32;;;;;;;14.70;4.77;;;;;8.90;101539.00;;;;10061897;29;20197;-78
2022/02/23 20:25:34;;;;;;;17.10;5.00;;;;;8.90;101523.00;;;;10044491;29;20776;-78
2022/02/23 20:30:37;;;;;;;15.17;5.30;;;;;8.80;101516.00;;;;10034791;29;20217;-79
2022/02/23 20:35:40;;;;;;;15.37;4.00;;;;;8.80;101520.00;;;;10019751;29;20208;-78
2022/02/23 20:40:43;;;;;;;13.90;4.63;;;;;8.70;101512.00;;;;10043694;29;20292;-78
2022/02/23 20:45:45;;;;;;;15.03;5.17;;;;;8.70;101500.00;;;;10035590;29;20204;-78
2022/02/23 20:50:47;;;;;;;14.13;5.33;;;;;8.60;101502.00;;;;10039452;29;20221;-78
2022/02/23 20:55:50;;;;;;;21.00;5.93;;;;;8.60;101491.00;;;;10036723;29;20197;-78
2022/02/23 21:00:53;;;;;;;15.70;5.13;;;;;8.60;101491.00;;;;10051970;29;20241;-78
2022/02/23 21:05:55;;;;;;;17.67;5.80;;;;;8.60;101496.00;;;;10017525;29;20288;-78
2022/02/23 21:10:57;;;;;;;15.63;5.13;;;;;8.60;101480.00;;;;10034830;29;20221;-78
2022/02/23 21:15:59;;;;;;;15.67;5.30;;;;;8.50;101471.00;;;;10034902;29;20197;-78
2022/02/23 21:21:02;;;;;;;17.33;5.07;;;;;8.50;101455.00;;;;10060563;29;20189;-78
2022/02/23 21:26:04;;;;;;;16.03;5.47;;;;;8.60;101457.00;;;;10033343;29;20247;-78
2022/02/23 21:31:06;;;;;;;10.37;5.40;;;;;8.60;101445.00;;;;10035983;29;20634;-78
2022/02/23 21:36:08;;;;;;;7.70;3.50;;;;;8.60;101441.00;;;;10043234;29;20201;-78
2022/02/23 21:41:10;;;;;;;15.50;5.17;;;;;8.60;101430.00;;;;10013444;29;20222;-78
2022/02/23 21:46:12;;;;;;;13.57;4.33;;;;;8.60;101424.00;;;;10033835;29;20197;-78
2022/02/23 21:51:14;;;;;;;11.23;4.37;;;;;8.50;101420.00;;;;10020361;29;20277;-79
2022/02/23 21:56:16;;;;;;;12.77;4.50;;;;;8.50;101424.00;;;;10041669;29;20251;-78
2022/02/23 22:01:18;;;;;;;13.73;4.30;;;;;8.50;101416.00;;;;10026796;29;20193;-78
2022/02/23 22:06:22;;;;;;;15.70;4.53;;;;;8.60;101408.00;;;;10025848;29;20215;-78
2022/02/23 22:11:24;;;;;;;16.27;5.07;;;;;8.60;101405.00;;;;10052331;29;20614;-78
2022/02/23 22:16:26;;;;;;;12.57;4.60;;;;;8.60;101408.00;;;;10055752;29;20216;-79
2022/02/23 22:21:28;;;;;;;17.37;4.57;;;;;8.50;101390.00;;;;10076994;29;20222;-79
2022/02/23 22:26:30;;;;;;;13.67;4.70;;;;;8.50;101390.00;;;;10075252;29;20197;-79
2022/02/23 22:31:32;;;;;;;15.73;4.03;;;;;8.50;101392.00;;;;10069577;29;20242;-78
2022/02/23 22:36:34;;;;;;;17.13;4.53;;;;;8.40;101381.00;;;;10034349;29;20201;-78
2022/02/23 22:41:37;;;;;;;16.50;5.10;;;;;8.40;101372.00;;;;10057710;29;20201;-78
2022/02/23 22:46:38;;;;;;;10.50;3.70;;;;;8.40;101375.00;;;;10062420;29;20269;-78
2022/02/23 22:51:41;;;;;;;14.60;3.87;;;;;8.40;101376.00;;;;10053447;29;20220;-78
2022/02/23 22:56:43;;;;;;;13.27;4.00;;;;;8.40;101365.00;;;;10052704;29;20205;-78
2022/02/23 23:01:45;;;;;;;13.73;5.10;;;;;8.40;101364.00;;;;10048955;29;20212;-79
2022/02/23 23:06:48;;;;;;;16.03;5.17;;;;;8.40;101364.00;;;;10024526;29;20217;-78
2022/02/23 23:11:50;;;;;;;12.07;4.47;;;;;8.40;101342.00;;;;10057277;29;20252;-78
2022/02/23 23:16:52;;;;;;;13.20;3.57;;;;;8.30;101338.00;;;;10077050;29;20200;-78
2022/02/23 23:21:53;;;;;;;15.90;4.23;;;;;8.20;101331.00;;;;10071314;29;20221;-78
2022/02/23 23:26:56;;;;;;;12.97;3.97;;;;;8.20;101319.00;;;;10074825;29;20284;-78
2022/02/23 23:31:58;;;;;;;16.83;4.40;;;;;8.20;101309.00;;;;10068005;29;20221;-78
2022/02/23 23:37:03;;;;;;;12.73;4.47;;;;;8.10;101303.00;;;;10062094;29;20205;-79
2022/02/23 23:42:06;;;;;;;11.93;4.50;;;;;8.10;101296.00;;;;10041316;29;20200;-78
2022/02/23 23:47:08;;;;;;;9.33;4.37;;;;;8.00;101291.00;;;;10047013;29;20204;-78
2022/02/23 23:52:10;;;;;;;15.07;4.20;;;;;8.00;101277.00;;;;10034464;29;20265;-78
2022/02/23 23:57:13;;;;;;;12.97;3.40;;;;;8.00;101272.00;;;;10064252;29;20228;-78
